sensor_id;sensor_type;location;lat;lon;timestamp;P1;durP1;ratioP1;P2;durP2;ratioP2
75810;SDS011;64449;50.016;19.954;2022-12-26T00:01:21;33.30;;;18.80;;
75810;SDS011;64449;50.016;19.954;2022-12-26T00:03:49;27.10;;;17.10;;
75810;SDS011;64449;50.016;19.954;2022-12-26T00:06:16;31.00;;;18.40;;
75810;SDS011;64449;50.016;19.954;2022-12-26T00:08:43;34.10;;;17.70;;
75810;SDS011;64449;50.016;19.954;2022-12-26T00:11:10;34.20;;;21.00;;
75810;SDS011;64449;50.016;19.954;2022-12-26T00:13:36;33.50;;;19.40;;
75810;SDS011;64449;50.016;19.954;2022-12-26T00:16:11;32.80;;;18.20;;
75810;SDS011;64449;50.016;19.954;2022-12-26T00:18:41;34.50;;;18.30;;
75810;SDS011;64449;50.016;19.954;2022-12-26T00:21:08;32.20;;;18.10;;
75810;SDS011;64449;50.016;19.954;2022-12-26T00:23:35;32.60;;;18.40;;
75810;SDS011;64449;50.016;19.954;2022-12-26T00:26:02;30.10;;;17.60;;
75810;SDS011;64449;50.016;19.954;2022-12-26T00:28:29;31.70;;;17.60;;
75810;SDS011;64449;50.016;19.954;2022-12-26T00:30:55;34.90;;;20.30;;
75810;SDS011;64449;50.016;19.954;2022-12-26T00:33:20;40.40;;;20.00;;
75810;SDS011;64449;50.016;19.954;2022-12-26T00:35:45;32.60;;;18.60;;
75810;SDS011;64449;50.016;19.954;2022-12-26T00:38:11;35.30;;;18.10;;
75810;SDS011;64449;50.016;19.954;2022-12-26T00:40:36;29.90;;;17.00;;
75810;SDS011;64449;50.016;19.954;2022-12-26T00:43:07;33.40;;;17.20;;
75810;SDS011;64449;50.016;19.954;2022-12-26T00:45:33;27.90;;;15.40;;
75810;SDS011;64449;50.016;19.954;2022-12-26T00:47:58;31.70;;;17.50;;
75810;SDS011;64449;50.016;19.954;2022-12-26T00:50:23;34.40;;;18.40;;
75810;SDS011;64449;50.016;19.954;2022-12-26T00:52:49;28.70;;;17.00;;
75810;SDS011;64449;50.016;19.954;2022-12-26T00:55:14;22.80;;;12.80;;
75810;SDS011;64449;50.016;19.954;2022-12-26T00:57:40;31.60;;;17.00;;
75810;SDS011;64449;50.016;19.954;2022-12-26T01:00:05;32.40;;;18.60;;
75810;SDS011;64449;50.016;19.954;2022-12-26T01:02:31;28.70;;;15.80;;
75810;SDS011;64449;50.016;19.954;2022-12-26T01:05:03;34.00;;;18.30;;
75810;SDS011;64449;50.016;19.954;2022-12-26T01:07:32;34.50;;;18.20;;
75810;SDS011;64449;50.016;19.954;2022-12-26T01:09:59;35.40;;;19.30;;
75810;SDS011;64449;50.016;19.954;2022-12-26T01:12:25;34.30;;;18.10;;
75810;SDS011;64449;50.016;19.954;2022-12-26T01:14:51;35.30;;;19.40;;
75810;SDS011;64449;50.016;19.954;2022-12-26T01:17:20;33.00;;;19.50;;
75810;SDS011;64449;50.016;19.954;2022-12-26T01:19:45;33.70;;;19.40;;
75810;SDS011;64449;50.016;19.954;2022-12-26T01:22:11;33.80;;;18.30;;
75810;SDS011;64449;50.016;19.954;2022-12-26T01:24:36;36.00;;;18.90;;
75810;SDS011;64449;50.016;19.954;2022-12-26T01:27:01;33.90;;;18.60;;
75810;SDS011;64449;50.016;19.954;2022-12-26T01:29:27;39.30;;;19.90;;
75810;SDS011;64449;50.016;19.954;2022-12-26T01:31:52;32.60;;;18.20;;
75810;SDS011;64449;50.016;19.954;2022-12-26T01:34:17;36.10;;;19.10;;
75810;SDS011;64449;50.016;19.954;2022-12-26T01:36:43;30.90;;;17.80;;
75810;SDS011;64449;50.016;19.954;2022-12-26T01:39:08;35.60;;;18.20;;
75810;SDS011;64449;50.016;19.954;2022-12-26T01:41:34;33.20;;;19.30;;
75810;SDS011;64449;50.016;19.954;2022-12-26T01:44:01;33.10;;;18.70;;
75810;SDS011;64449;50.016;19.954;2022-12-26T01:46:33;34.10;;;18.50;;
75810;SDS011;64449;50.016;19.954;2022-12-26T01:49:01;35.20;;;18.90;;
75810;SDS011;64449;50.016;19.954;2022-12-26T01:51:34;35.90;;;18.70;;
75810;SDS011;64449;50.016;19.954;2022-12-26T01:54:02;34.80;;;19.60;;
75810;SDS011;64449;50.016;19.954;2022-12-26T01:56:31;35.90;;;20.00;;
75810;SDS011;64449;50.016;19.954;2022-12-26T01:59:02;34.10;;;18.40;;
75810;SDS011;64449;50.016;19.954;2022-12-26T02:01:32;33.50;;;18.70;;
75810;SDS011;64449;50.016;19.954;2022-12-26T02:04:01;33.10;;;19.70;;
75810;SDS011;64449;50.016;19.954;2022-12-26T02:06:50;35.50;;;18.60;;
75810;SDS011;64449;50.016;19.954;2022-12-26T02:09:16;37.80;;;19.00;;
75810;SDS011;64449;50.016;19.954;2022-12-26T02:12:00;32.30;;;18.00;;
75810;SDS011;64449;50.016;19.954;2022-12-26T02:14:29;36.50;;;19.40;;
75810;SDS011;64449;50.016;19.954;2022-12-26T02:16:55;31.40;;;18.10;;
75810;SDS011;64449;50.016;19.954;2022-12-26T02:27:27;34.60;;;17.30;;
75810;SDS011;64449;50.016;19.954;2022-12-26T02:38:32;31.90;;;17.20;;
75810;SDS011;64449;50.016;19.954;2022-12-26T02:55:46;23.50;;;13.70;;
75810;SDS011;64449;50.016;19.954;2022-12-26T02:58:40;28.00;;;14.30;;
75810;SDS011;64449;50.016;19.954;2022-12-26T03:04:19;23.90;;;12.90;;
75810;SDS011;64449;50.016;19.954;2022-12-26T03:07:06;25.50;;;14.20;;
75810;SDS011;64449;50.016;19.954;2022-12-26T03:09:57;25.00;;;13.20;;
75810;SDS011;64449;50.016;19.954;2022-12-26T03:12:51;24.30;;;13.40;;
75810;SDS011;64449;50.016;19.954;2022-12-26T03:15:40;24.30;;;13.40;;
75810;SDS011;64449;50.016;19.954;2022-12-26T03:18:26;25.70;;;14.10;;
75810;SDS011;64449;50.016;19.954;2022-12-26T03:20:53;23.30;;;13.00;;
75810;SDS011;64449;50.016;19.954;2022-12-26T03:23:19;24.30;;;12.80;;
75810;SDS011;64449;50.016;19.954;2022-12-26T03:28:52;23.40;;;13.90;;
75810;SDS011;64449;50.016;19.954;2022-12-26T03:31:38;23.50;;;12.80;;
75810;SDS011;64449;50.016;19.954;2022-12-26T03:34:04;26.30;;;13.70;;
75810;SDS011;64449;50.016;19.954;2022-12-26T03:36:59;31.00;;;15.50;;
75810;SDS011;64449;50.016;19.954;2022-12-26T03:45:51;29.80;;;16.10;;
75810;SDS011;64449;50.016;19.954;2022-12-26T03:57:38;33.60;;;16.50;;
75810;SDS011;64449;50.016;19.954;2022-12-26T04:00:30;32.20;;;16.30;;
75810;SDS011;64449;50.016;19.954;2022-12-26T04:03:17;29.20;;;15.90;;
75810;SDS011;64449;50.016;19.954;2022-12-26T04:06:04;28.00;;;15.90;;
75810;SDS011;64449;50.016;19.954;2022-12-26T04:09:01;26.60;;;14.30;;
75810;SDS011;64449;50.016;19.954;2022-12-26T04:11:50;26.50;;;12.40;;
75810;SDS011;64449;50.016;19.954;2022-12-26T04:14:52;31.90;;;14.10;;
75810;SDS011;64449;50.016;19.954;2022-12-26T04:17:43;26.20;;;13.70;;
75810;SDS011;64449;50.016;19.954;2022-12-26T04:20:37;24.00;;;12.90;;
75810;SDS011;64449;50.016;19.954;2022-12-26T04:23:44;28.90;;;12.70;;
75810;SDS011;64449;50.016;19.954;2022-12-26T04:26:31;30.30;;;15.90;;
75810;SDS011;64449;50.016;19.954;2022-12-26T04:29:19;25.70;;;13.80;;
75810;SDS011;64449;50.016;19.954;2022-12-26T04:32:06;31.30;;;14.00;;
75810;SDS011;64449;50.016;19.954;2022-12-26T04:35:15;28.20;;;13.90;;
75810;SDS011;64449;50.016;19.954;2022-12-26T04:38:19;30.00;;;14.50;;
75810;SDS011;64449;50.016;19.954;2022-12-26T04:43:54;27.00;;;14.40;;
75810;SDS011;64449;50.016;19.954;2022-12-26T04:46:32;23.90;;;13.20;;
75810;SDS011;64449;50.016;19.954;2022-12-26T04:49:02;26.80;;;15.60;;
75810;SDS011;64449;50.016;19.954;2022-12-26T04:51:48;33.10;;;16.80;;
75810;SDS011;64449;50.016;19.954;2022-12-26T04:54:14;26.70;;;14.90;;
75810;SDS011;64449;50.016;19.954;2022-12-26T04:56:40;30.80;;;15.00;;
75810;SDS011;64449;50.016;19.954;2022-12-26T04:59:05;30.00;;;16.30;;
75810;SDS011;64449;50.016;19.954;2022-12-26T05:01:31;29.10;;;15.20;;
75810;SDS011;64449;50.016;19.954;2022-12-26T05:04:15;26.00;;;15.10;;
75810;SDS011;64449;50.016;19.954;2022-12-26T05:07:01;25.50;;;14.20;;
75810;SDS011;64449;50.016;19.954;2022-12-26T05:09:49;25.50;;;13.50;;
75810;SDS011;64449;50.016;19.954;2022-12-26T05:12:17;26.20;;;14.10;;
75810;SDS011;64449;50.016;19.954;2022-12-26T05:14:43;27.40;;;14.80;;
75810;SDS011;64449;50.016;19.954;2022-12-26T05:17:08;25.90;;;14.10;;
75810;SDS011;64449;50.016;19.954;2022-12-26T05:19:53;30.40;;;15.80;;
75810;SDS011;64449;50.016;19.954;2022-12-26T05:25:33;23.40;;;13.50;;
75810;SDS011;64449;50.016;19.954;2022-12-26T05:28:20;31.10;;;14.50;;
75810;SDS011;64449;50.016;19.954;2022-12-26T05:31:04;28.80;;;15.60;;
75810;SDS011;64449;50.016;19.954;2022-12-26T05:33:30;27.80;;;15.10;;
75810;SDS011;64449;50.016;19.954;2022-12-26T05:36:14;29.60;;;14.90;;
75810;SDS011;64449;50.016;19.954;2022-12-26T05:38:41;28.40;;;15.90;;
75810;SDS011;64449;50.016;19.954;2022-12-26T05:41:07;29.20;;;15.90;;
75810;SDS011;64449;50.016;19.954;2022-12-26T05:43:32;26.90;;;13.70;;
75810;SDS011;64449;50.016;19.954;2022-12-26T05:45:58;27.50;;;15.00;;
75810;SDS011;64449;50.016;19.954;2022-12-26T05:48:23;28.00;;;14.70;;
75810;SDS011;64449;50.016;19.954;2022-12-26T05:50:48;28.90;;;15.00;;
75810;SDS011;64449;50.016;19.954;2022-12-26T05:53:14;23.60;;;13.00;;
75810;SDS011;64449;50.016;19.954;2022-12-26T05:55:39;22.20;;;12.20;;
75810;SDS011;64449;50.016;19.954;2022-12-26T05:58:04;31.60;;;14.50;;
75810;SDS011;64449;50.016;19.954;2022-12-26T06:00:30;24.60;;;13.80;;
75810;SDS011;64449;50.016;19.954;2022-12-26T06:02:57;24.40;;;14.30;;
75810;SDS011;64449;50.016;19.954;2022-12-26T06:05:23;31.10;;;15.50;;
75810;SDS011;64449;50.016;19.954;2022-12-26T06:07:49;24.70;;;14.00;;
75810;SDS011;64449;50.016;19.954;2022-12-26T06:10:14;23.60;;;13.00;;
75810;SDS011;64449;50.016;19.954;2022-12-26T06:12:40;26.90;;;13.80;;
75810;SDS011;64449;50.016;19.954;2022-12-26T06:15:05;21.50;;;11.50;;
75810;SDS011;64449;50.016;19.954;2022-12-26T06:17:31;25.30;;;13.00;;
75810;SDS011;64449;50.016;19.954;2022-12-26T06:19:56;26.50;;;13.80;;
75810;SDS011;64449;50.016;19.954;2022-12-26T06:22:22;26.50;;;13.70;;
75810;SDS011;64449;50.016;19.954;2022-12-26T06:24:47;21.10;;;13.20;;
75810;SDS011;64449;50.016;19.954;2022-12-26T06:27:12;22.50;;;12.60;;
75810;SDS011;64449;50.016;19.954;2022-12-26T06:32:03;21.50;;;11.40;;
75810;SDS011;64449;50.016;19.954;2022-12-26T06:34:29;20.40;;;12.40;;
75810;SDS011;64449;50.016;19.954;2022-12-26T06:36:54;21.90;;;12.20;;
75810;SDS011;64449;50.016;19.954;2022-12-26T06:39:20;25.70;;;14.90;;
75810;SDS011;64449;50.016;19.954;2022-12-26T06:41:46;22.60;;;11.80;;
75810;SDS011;64449;50.016;19.954;2022-12-26T06:44:12;27.90;;;14.40;;
75810;SDS011;64449;50.016;19.954;2022-12-26T06:46:38;15.70;;;8.80;;
75810;SDS011;64449;50.016;19.954;2022-12-26T06:49:03;24.40;;;15.20;;
75810;SDS011;64449;50.016;19.954;2022-12-26T06:51:30;23.10;;;13.00;;
75810;SDS011;64449;50.016;19.954;2022-12-26T06:53:57;22.40;;;13.30;;
75810;SDS011;64449;50.016;19.954;2022-12-26T06:56:25;30.20;;;17.10;;
75810;SDS011;64449;50.016;19.954;2022-12-26T06:59:01;27.60;;;16.40;;
75810;SDS011;64449;50.016;19.954;2022-12-26T07:01:29;34.60;;;18.50;;
75810;SDS011;64449;50.016;19.954;2022-12-26T07:03:56;33.20;;;18.30;;
75810;SDS011;64449;50.016;19.954;2022-12-26T07:06:23;32.40;;;19.10;;
75810;SDS011;64449;50.016;19.954;2022-12-26T07:08:51;32.50;;;18.90;;
75810;SDS011;64449;50.016;19.954;2022-12-26T07:11:22;34.40;;;19.20;;
75810;SDS011;64449;50.016;19.954;2022-12-26T07:13:49;39.20;;;20.00;;
75810;SDS011;64449;50.016;19.954;2022-12-26T07:16:15;34.60;;;20.80;;
75810;SDS011;64449;50.016;19.954;2022-12-26T07:18:40;37.50;;;20.30;;
75810;SDS011;64449;50.016;19.954;2022-12-26T07:21:06;38.30;;;19.50;;
75810;SDS011;64449;50.016;19.954;2022-12-26T07:23:33;44.20;;;23.50;;
75810;SDS011;64449;50.016;19.954;2022-12-26T07:25:59;35.90;;;18.70;;
75810;SDS011;64449;50.016;19.954;2022-12-26T07:28:25;37.30;;;18.90;;
75810;SDS011;64449;50.016;19.954;2022-12-26T07:30:51;31.80;;;19.10;;
75810;SDS011;64449;50.016;19.954;2022-12-26T07:33:17;36.60;;;21.70;;
75810;SDS011;64449;50.016;19.954;2022-12-26T07:35:42;36.70;;;21.30;;
75810;SDS011;64449;50.016;19.954;2022-12-26T07:38:08;39.10;;;21.40;;
75810;SDS011;64449;50.016;19.954;2022-12-26T07:40:35;34.80;;;20.10;;
75810;SDS011;64449;50.016;19.954;2022-12-26T07:43:01;29.10;;;17.50;;
75810;SDS011;64449;50.016;19.954;2022-12-26T07:45:26;30.40;;;16.50;;
75810;SDS011;64449;50.016;19.954;2022-12-26T07:47:52;24.60;;;14.70;;
75810;SDS011;64449;50.016;19.954;2022-12-26T07:50:18;26.50;;;15.70;;
75810;SDS011;64449;50.016;19.954;2022-12-26T07:52:44;29.10;;;15.60;;
75810;SDS011;64449;50.016;19.954;2022-12-26T07:55:09;21.60;;;13.50;;
75810;SDS011;64449;50.016;19.954;2022-12-26T07:57:35;24.40;;;15.00;;
75810;SDS011;64449;50.016;19.954;2022-12-26T08:00:00;28.70;;;15.50;;
75810;SDS011;64449;50.016;19.954;2022-12-26T08:02:25;33.50;;;18.20;;
75810;SDS011;64449;50.016;19.954;2022-12-26T08:04:51;33.60;;;19.50;;
75810;SDS011;64449;50.016;19.954;2022-12-26T08:07:16;40.70;;;21.70;;
75810;SDS011;64449;50.016;19.954;2022-12-26T08:09:42;33.40;;;20.70;;
75810;SDS011;64449;50.016;19.954;2022-12-26T08:12:09;32.80;;;18.20;;
75810;SDS011;64449;50.016;19.954;2022-12-26T08:14:38;34.40;;;18.70;;
75810;SDS011;64449;50.016;19.954;2022-12-26T08:17:03;29.80;;;17.10;;
75810;SDS011;64449;50.016;19.954;2022-12-26T08:19:29;32.60;;;17.10;;
75810;SDS011;64449;50.016;19.954;2022-12-26T08:21:54;26.90;;;15.30;;
75810;SDS011;64449;50.016;19.954;2022-12-26T08:24:20;28.10;;;16.10;;
75810;SDS011;64449;50.016;19.954;2022-12-26T08:26:45;27.10;;;15.90;;
75810;SDS011;64449;50.016;19.954;2022-12-26T08:29:10;29.00;;;16.40;;
75810;SDS011;64449;50.016;19.954;2022-12-26T08:31:36;28.80;;;15.30;;
75810;SDS011;64449;50.016;19.954;2022-12-26T08:34:01;29.40;;;16.20;;
75810;SDS011;64449;50.016;19.954;2022-12-26T08:36:27;28.30;;;17.00;;
75810;SDS011;64449;50.016;19.954;2022-12-26T08:38:52;32.60;;;17.70;;
75810;SDS011;64449;50.016;19.954;2022-12-26T08:41:18;30.60;;;17.90;;
75810;SDS011;64449;50.016;19.954;2022-12-26T08:43:47;27.90;;;16.70;;
75810;SDS011;64449;50.016;19.954;2022-12-26T08:46:14;27.50;;;17.20;;
75810;SDS011;64449;50.016;19.954;2022-12-26T08:48:40;30.40;;;18.70;;
75810;SDS011;64449;50.016;19.954;2022-12-26T08:51:06;28.80;;;19.70;;
75810;SDS011;64449;50.016;19.954;2022-12-26T08:53:37;28.20;;;15.80;;
75810;SDS011;64449;50.016;19.954;2022-12-26T08:56:04;29.70;;;18.40;;
75810;SDS011;64449;50.016;19.954;2022-12-26T08:58:31;33.50;;;18.60;;
75810;SDS011;64449;50.016;19.954;2022-12-26T09:01:39;32.30;;;18.20;;
75810;SDS011;64449;50.016;19.954;2022-12-26T09:03:51;32.00;;;17.40;;
75810;SDS011;64449;50.016;19.954;2022-12-26T09:06:17;31.60;;;18.40;;
75810;SDS011;64449;50.016;19.954;2022-12-26T09:08:43;29.80;;;17.70;;
75810;SDS011;64449;50.016;19.954;2022-12-26T09:11:10;32.90;;;18.90;;
75810;SDS011;64449;50.016;19.954;2022-12-26T09:13:38;30.70;;;18.20;;
75810;SDS011;64449;50.016;19.954;2022-12-26T09:16:05;29.50;;;17.80;;
75810;SDS011;64449;50.016;19.954;2022-12-26T09:18:32;33.60;;;18.90;;
75810;SDS011;64449;50.016;19.954;2022-12-26T09:20:58;32.80;;;18.60;;
75810;SDS011;64449;50.016;19.954;2022-12-26T09:23:25;33.80;;;19.60;;
75810;SDS011;64449;50.016;19.954;2022-12-26T09:25:51;25.10;;;15.60;;
75810;SDS011;64449;50.016;19.954;2022-12-26T09:28:16;32.60;;;18.00;;
75810;SDS011;64449;50.016;19.954;2022-12-26T09:30:42;29.20;;;17.80;;
75810;SDS011;64449;50.016;19.954;2022-12-26T09:33:09;24.00;;;15.20;;
75810;SDS011;64449;50.016;19.954;2022-12-26T09:35:34;30.40;;;18.30;;
75810;SDS011;64449;50.016;19.954;2022-12-26T09:38:03;27.80;;;16.10;;
75810;SDS011;64449;50.016;19.954;2022-12-26T09:40:30;29.90;;;17.90;;
75810;SDS011;64449;50.016;19.954;2022-12-26T09:48:17;35.90;;;21.60;;
75810;SDS011;64449;50.016;19.954;2022-12-26T09:50:56;34.30;;;19.40;;
75810;SDS011;64449;50.016;19.954;2022-12-26T09:53:38;29.20;;;17.90;;
75810;SDS011;64449;50.016;19.954;2022-12-26T09:56:10;28.20;;;17.40;;
75810;SDS011;64449;50.016;19.954;2022-12-26T09:58:49;28.90;;;17.70;;
75810;SDS011;64449;50.016;19.954;2022-12-26T10:01:20;30.00;;;17.20;;
75810;SDS011;64449;50.016;19.954;2022-12-26T10:06:18;27.20;;;17.00;;
75810;SDS011;64449;50.016;19.954;2022-12-26T10:17:02;29.90;;;18.50;;
75810;SDS011;64449;50.016;19.954;2022-12-26T10:19:41;32.10;;;18.70;;
75810;SDS011;64449;50.016;19.954;2022-12-26T10:25:42;31.30;;;18.60;;
75810;SDS011;64449;50.016;19.954;2022-12-26T10:31:10;31.90;;;19.50;;
75810;SDS011;64449;50.016;19.954;2022-12-26T10:33:42;25.20;;;15.10;;
75810;SDS011;64449;50.016;19.954;2022-12-26T10:36:20;27.80;;;15.30;;
75810;SDS011;64449;50.016;19.954;2022-12-26T10:38:51;25.90;;;15.20;;
75810;SDS011;64449;50.016;19.954;2022-12-26T10:41:25;25.00;;;15.90;;
75810;SDS011;64449;50.016;19.954;2022-12-26T10:43:56;28.10;;;17.50;;
75810;SDS011;64449;50.016;19.954;2022-12-26T10:46:26;28.60;;;15.20;;
75810;SDS011;64449;50.016;19.954;2022-12-26T10:48:54;28.30;;;16.30;;
75810;SDS011;64449;50.016;19.954;2022-12-26T10:51:19;27.30;;;16.80;;
75810;SDS011;64449;50.016;19.954;2022-12-26T10:53:46;31.70;;;19.40;;
75810;SDS011;64449;50.016;19.954;2022-12-26T10:56:14;32.20;;;18.80;;
75810;SDS011;64449;50.016;19.954;2022-12-26T10:58:41;23.80;;;15.20;;
75810;SDS011;64449;50.016;19.954;2022-12-26T11:03:56;26.40;;;16.10;;
75810;SDS011;64449;50.016;19.954;2022-12-26T11:06:41;30.00;;;18.30;;
75810;SDS011;64449;50.016;19.954;2022-12-26T11:11:54;27.20;;;16.50;;
75810;SDS011;64449;50.016;19.954;2022-12-26T11:16:57;24.60;;;15.80;;
75810;SDS011;64449;50.016;19.954;2022-12-26T11:19:28;24.20;;;15.70;;
75810;SDS011;64449;50.016;19.954;2022-12-26T11:22:41;26.30;;;15.40;;
75810;SDS011;64449;50.016;19.954;2022-12-26T11:24:44;25.40;;;15.50;;
75810;SDS011;64449;50.016;19.954;2022-12-26T11:27:16;27.50;;;16.40;;
75810;SDS011;64449;50.016;19.954;2022-12-26T11:29:44;26.40;;;16.70;;
75810;SDS011;64449;50.016;19.954;2022-12-26T11:32:13;24.40;;;16.20;;
75810;SDS011;64449;50.016;19.954;2022-12-26T11:34:45;24.60;;;15.50;;
75810;SDS011;64449;50.016;19.954;2022-12-26T11:37:24;18.90;;;13.40;;
75810;SDS011;64449;50.016;19.954;2022-12-26T11:39:52;23.50;;;14.60;;
75810;SDS011;64449;50.016;19.954;2022-12-26T11:42:19;25.50;;;15.00;;
75810;SDS011;64449;50.016;19.954;2022-12-26T11:44:47;24.40;;;16.20;;
75810;SDS011;64449;50.016;19.954;2022-12-26T11:47:26;25.40;;;15.40;;
75810;SDS011;64449;50.016;19.954;2022-12-26T11:52:50;22.40;;;14.70;;
75810;SDS011;64449;50.016;19.954;2022-12-26T12:00:32;21.90;;;13.40;;
75810;SDS011;64449;50.016;19.954;2022-12-26T12:03:01;21.60;;;14.40;;
75810;SDS011;64449;50.016;19.954;2022-12-26T12:05:35;25.00;;;14.10;;
75810;SDS011;64449;50.016;19.954;2022-12-26T12:15:41;22.10;;;12.20;;
75810;SDS011;64449;50.016;19.954;2022-12-26T12:18:19;15.30;;;8.40;;
75810;SDS011;64449;50.016;19.954;2022-12-26T12:21:02;10.90;;;6.60;;
75810;SDS011;64449;50.016;19.954;2022-12-26T12:23:37;14.50;;;8.10;;
75810;SDS011;64449;50.016;19.954;2022-12-26T12:26:08;14.20;;;7.10;;
75810;SDS011;64449;50.016;19.954;2022-12-26T12:28:42;15.10;;;9.00;;
75810;SDS011;64449;50.016;19.954;2022-12-26T12:39:50;10.60;;;6.60;;
75810;SDS011;64449;50.016;19.954;2022-12-26T12:42:31;12.20;;;8.00;;
75810;SDS011;64449;50.016;19.954;2022-12-26T12:50:32;10.30;;;5.70;;
75810;SDS011;64449;50.016;19.954;2022-12-26T12:56:14;10.60;;;6.60;;
75810;SDS011;64449;50.016;19.954;2022-12-26T13:01:25;12.50;;;6.70;;
75810;SDS011;64449;50.016;19.954;2022-12-26T13:04:01;10.90;;;5.80;;
75810;SDS011;64449;50.016;19.954;2022-12-26T13:06:55;9.10;;;6.30;;
75810;SDS011;64449;50.016;19.954;2022-12-26T13:09:28;11.60;;;6.50;;
75810;SDS011;64449;50.016;19.954;2022-12-26T13:14:43;11.70;;;6.30;;
75810;SDS011;64449;50.016;19.954;2022-12-26T13:17:15;12.70;;;7.70;;
75810;SDS011;64449;50.016;19.954;2022-12-26T13:19:46;14.10;;;7.50;;
75810;SDS011;64449;50.016;19.954;2022-12-26T13:22:29;14.20;;;8.10;;
75810;SDS011;64449;50.016;19.954;2022-12-26T13:25:17;12.00;;;7.90;;
75810;SDS011;64449;50.016;19.954;2022-12-26T13:27:46;14.50;;;8.70;;
75810;SDS011;64449;50.016;19.954;2022-12-26T13:30:14;14.70;;;9.00;;
75810;SDS011;64449;50.016;19.954;2022-12-26T13:32:41;14.90;;;8.60;;
75810;SDS011;64449;50.016;19.954;2022-12-26T13:38:10;15.00;;;10.20;;
75810;SDS011;64449;50.016;19.954;2022-12-26T13:40:35;17.90;;;11.60;;
75810;SDS011;64449;50.016;19.954;2022-12-26T13:43:02;18.30;;;10.60;;
75810;SDS011;64449;50.016;19.954;2022-12-26T13:45:57;15.30;;;9.60;;
75810;SDS011;64449;50.016;19.954;2022-12-26T13:50:57;21.00;;;10.80;;
75810;SDS011;64449;50.016;19.954;2022-12-26T13:55:57;17.30;;;11.20;;
75810;SDS011;64449;50.016;19.954;2022-12-26T14:00:52;15.70;;;9.70;;
75810;SDS011;64449;50.016;19.954;2022-12-26T14:03:42;15.20;;;9.20;;
75810;SDS011;64449;50.016;19.954;2022-12-26T14:28:55;14.60;;;9.90;;
75810;SDS011;64449;50.016;19.954;2022-12-26T14:36:47;17.80;;;11.00;;
75810;SDS011;64449;50.016;19.954;2022-12-26T14:44:57;20.70;;;11.90;;
75810;SDS011;64449;50.016;19.954;2022-12-26T14:47:41;22.70;;;12.00;;
75810;SDS011;64449;50.016;19.954;2022-12-26T14:58:51;21.10;;;12.50;;
75810;SDS011;64449;50.016;19.954;2022-12-26T15:20:51;26.20;;;17.00;;
75810;SDS011;64449;50.016;19.954;2022-12-26T15:31:25;27.50;;;16.50;;
75810;SDS011;64449;50.016;19.954;2022-12-26T15:33:58;21.90;;;13.30;;
75810;SDS011;64449;50.016;19.954;2022-12-26T15:39:55;19.00;;;12.00;;
75810;SDS011;64449;50.016;19.954;2022-12-26T16:01:35;24.90;;;14.70;;
75810;SDS011;64449;50.016;19.954;2022-12-26T16:07:07;26.60;;;15.10;;
75810;SDS011;64449;50.016;19.954;2022-12-26T16:09:43;23.70;;;13.40;;
75810;SDS011;64449;50.016;19.954;2022-12-26T16:14:45;21.00;;;13.20;;
75810;SDS011;64449;50.016;19.954;2022-12-26T16:19:44;26.10;;;15.50;;
75810;SDS011;64449;50.016;19.954;2022-12-26T16:22:13;25.30;;;15.00;;
75810;SDS011;64449;50.016;19.954;2022-12-26T16:25:06;22.10;;;13.10;;
75810;SDS011;64449;50.016;19.954;2022-12-26T16:27:33;23.60;;;14.00;;
75810;SDS011;64449;50.016;19.954;2022-12-26T16:30:03;25.70;;;14.30;;
75810;SDS011;64449;50.016;19.954;2022-12-26T16:32:35;24.80;;;14.70;;
75810;SDS011;64449;50.016;19.954;2022-12-26T16:35:03;22.00;;;14.30;;
75810;SDS011;64449;50.016;19.954;2022-12-26T16:37:29;24.90;;;14.60;;
75810;SDS011;64449;50.016;19.954;2022-12-26T16:42:31;22.40;;;13.30;;
75810;SDS011;64449;50.016;19.954;2022-12-26T16:44:56;24.10;;;14.00;;
75810;SDS011;64449;50.016;19.954;2022-12-26T16:47:22;26.60;;;15.70;;
75810;SDS011;64449;50.016;19.954;2022-12-26T16:49:48;21.40;;;13.70;;
75810;SDS011;64449;50.016;19.954;2022-12-26T16:52:32;15.20;;;9.10;;
75810;SDS011;64449;50.016;19.954;2022-12-26T16:55:21;16.50;;;9.00;;
75810;SDS011;64449;50.016;19.954;2022-12-26T16:58:29;10.80;;;6.60;;
75810;SDS011;64449;50.016;19.954;2022-12-26T17:03:34;9.50;;;5.20;;
75810;SDS011;64449;50.016;19.954;2022-12-26T17:06:06;9.50;;;5.80;;
75810;SDS011;64449;50.016;19.954;2022-12-26T17:08:39;9.60;;;5.30;;
75810;SDS011;64449;50.016;19.954;2022-12-26T17:11:06;11.00;;;6.00;;
75810;SDS011;64449;50.016;19.954;2022-12-26T17:13:31;9.00;;;4.30;;
75810;SDS011;64449;50.016;19.954;2022-12-26T17:15:57;8.80;;;5.10;;
75810;SDS011;64449;50.016;19.954;2022-12-26T17:18:30;5.40;;;2.70;;
75810;SDS011;64449;50.016;19.954;2022-12-26T17:26:31;12.20;;;6.50;;
75810;SDS011;64449;50.016;19.954;2022-12-26T17:28:58;15.80;;;7.50;;
75810;SDS011;64449;50.016;19.954;2022-12-26T17:31:37;18.20;;;9.90;;
75810;SDS011;64449;50.016;19.954;2022-12-26T17:34:19;17.50;;;10.20;;
75810;SDS011;64449;50.016;19.954;2022-12-26T17:36:49;16.60;;;9.40;;
75810;SDS011;64449;50.016;19.954;2022-12-26T17:39:24;16.60;;;8.20;;
75810;SDS011;64449;50.016;19.954;2022-12-26T17:41:52;14.30;;;8.40;;
75810;SDS011;64449;50.016;19.954;2022-12-26T17:44:32;15.10;;;8.90;;
75810;SDS011;64449;50.016;19.954;2022-12-26T17:49:45;15.40;;;7.40;;
75810;SDS011;64449;50.016;19.954;2022-12-26T17:52:11;18.30;;;10.40;;
75810;SDS011;64449;50.016;19.954;2022-12-26T17:54:38;17.80;;;10.10;;
75810;SDS011;64449;50.016;19.954;2022-12-26T17:57:03;17.60;;;10.20;;
75810;SDS011;64449;50.016;19.954;2022-12-26T17:59:29;15.90;;;9.50;;
75810;SDS011;64449;50.016;19.954;2022-12-26T18:01:54;12.90;;;8.10;;
75810;SDS011;64449;50.016;19.954;2022-12-26T18:04:19;11.30;;;5.80;;
75810;SDS011;64449;50.016;19.954;2022-12-26T18:06:45;5.80;;;3.40;;
75810;SDS011;64449;50.016;19.954;2022-12-26T18:09:24;8.10;;;4.50;;
75810;SDS011;64449;50.016;19.954;2022-12-26T18:11:51;6.20;;;2.80;;
75810;SDS011;64449;50.016;19.954;2022-12-26T18:14:18;7.50;;;3.50;;
75810;SDS011;64449;50.016;19.954;2022-12-26T18:16:43;7.20;;;3.20;;
75810;SDS011;64449;50.016;19.954;2022-12-26T18:19:13;7.60;;;4.20;;
75810;SDS011;64449;50.016;19.954;2022-12-26T18:21:40;5.70;;;3.20;;
75810;SDS011;64449;50.016;19.954;2022-12-26T18:24:06;5.70;;;3.50;;
75810;SDS011;64449;50.016;19.954;2022-12-26T18:26:31;5.40;;;3.20;;
75810;SDS011;64449;50.016;19.954;2022-12-26T18:28:57;5.70;;;3.20;;
75810;SDS011;64449;50.016;19.954;2022-12-26T18:31:23;6.10;;;3.10;;
75810;SDS011;64449;50.016;19.954;2022-12-26T18:33:50;5.60;;;3.60;;
75810;SDS011;64449;50.016;19.954;2022-12-26T18:36:16;6.40;;;3.40;;
75810;SDS011;64449;50.016;19.954;2022-12-26T18:38:43;7.00;;;3.40;;
75810;SDS011;64449;50.016;19.954;2022-12-26T18:41:12;6.70;;;3.40;;
75810;SDS011;64449;50.016;19.954;2022-12-26T18:43:40;7.40;;;3.70;;
75810;SDS011;64449;50.016;19.954;2022-12-26T18:46:08;8.40;;;3.70;;
75810;SDS011;64449;50.016;19.954;2022-12-26T18:48:41;7.60;;;3.30;;